sensor_id;sensor_type;location;lat;lon;timestamp;temperature;humidity
14749;DHT22;7466;53.574;9.976;2024-03-23T00:53:37;6.80;99.90
14749;DHT22;7466;53.574;9.976;2024-03-23T00:56:03;6.70;99.90
14749;DHT22;7466;53.574;9.976;2024-03-23T00:58:30;6.70;99.90
14749;DHT22;7466;53.574;9.976;2024-03-23T01:00:57;6.70;99.90
14749;DHT22;7466;53.574;9.976;2024-03-23T01:03:22;6.70;99.90
14749;DHT22;7466;53.574;9.976;2024-03-23T01:05:49;6.60;99.90
14749;DHT22;7466;53.574;9.976;2024-03-23T01:08:15;6.60;99.90
14749;DHT22;7466;53.574;9.976;2024-03-23T01:10:43;6.60;99.90
14749;DHT22;7466;53.574;9.976;2024-03-23T01:13:18;6.60;99.90
14749;DHT22;7466;53.574;9.976;2024-03-23T01:15:48;6.60;99.90
14749;DHT22;7466;53.574;9.976;2024-03-23T01:18:14;6.60;99.90
14749;DHT22;7466;53.574;9.976;2024-03-23T01:20:41;6.60;99.90
14749;DHT22;7466;53.574;9.976;2024-03-23T01:23:07;6.50;99.90
14749;DHT22;7466;53.574;9.976;2024-03-23T01:25:33;6.60;99.90
14749;DHT22;7466;53.574;9.976;2024-03-23T01:28:00;6.60;99.90
14749;DHT22;7466;53.574;9.976;2024-03-23T01:30:27;6.50;99.90
14749;DHT22;7466;53.574;9.976;2024-03-23T01:32:53;6.50;99.90
14749;DHT22;7466;53.574;9.976;2024-03-23T01:35:20;6.50;99.90
14749;DHT22;7466;53.574;9.976;2024-03-23T01:37:45;6.50;99.90
14749;DHT22;7466;53.574;9.976;2024-03-23T01:40:12;6.50;99.90
14749;DHT22;7466;53.574;9.976;2024-03-23T01:42:38;6.50;99.90
14749;DHT22;7466;53.574;9.976;2024-03-23T01:45:08;6.40;99.90
14749;DHT22;7466;53.574;9.976;2024-03-23T01:47:34;6.40;99.90
14749;DHT22;7466;53.574;9.976;2024-03-23T01:50:01;6.50;99.90
14749;DHT22;7466;53.574;9.976;2024-03-23T01:52:27;6.40;99.90
14749;DHT22;7466;53.574;9.976;2024-03-23T01:54:54;6.40;99.90
14749;DHT22;7466;53.574;9.976;2024-03-23T01:57:19;6.40;99.90
14749;DHT22;7466;53.574;9.976;2024-03-23T01:59:47;6.40;99.90
14749;DHT22;7466;53.574;9.976;2024-03-23T02:02:15;6.40;99.90
14749;DHT22;7466;53.574;9.976;2024-03-23T02:04:43;6.40;99.90
14749;DHT22;7466;53.574;9.976;2024-03-23T02:07:09;6.40;99.90
14749;DHT22;7466;53.574;9.976;2024-03-23T02:09:36;6.40;99.90
14749;DHT22;7466;53.574;9.976;2024-03-23T02:12:03;6.30;99.90
14749;DHT22;7466;53.574;9.976;2024-03-23T02:14:30;6.30;99.90
14749;DHT22;7466;53.574;9.976;2024-03-23T02:16:55;6.30;99.90
14749;DHT22;7466;53.574;9.976;2024-03-23T02:19:23;6.30;99.90
14749;DHT22;7466;53.574;9.976;2024-03-23T02:21:50;6.30;99.90
14749;DHT22;7466;53.574;9.976;2024-03-23T02:24:18;6.30;99.90
14749;DHT22;7466;53.574;9.976;2024-03-23T02:26:44;6.30;99.90
14749;DHT22;7466;53.574;9.976;2024-03-23T02:29:10;6.20;99.90
14749;DHT22;7466;53.574;9.976;2024-03-23T02:31:36;6.30;99.90
14749;DHT22;7466;53.574;9.976;2024-03-23T02:34:03;6.20;99.90
14749;DHT22;7466;53.574;9.976;2024-03-23T02:36:29;6.20;99.90
14749;DHT22;7466;53.574;9.976;2024-03-23T02:38:57;6.20;99.90
14749;DHT22;7466;53.574;9.976;2024-03-23T02:41:24;6.20;99.90
14749;DHT22;7466;53.574;9.976;2024-03-23T02:43:50;6.10;99.90
14749;DHT22;7466;53.574;9.976;2024-03-23T02:46:16;6.10;99.90
14749;DHT22;7466;53.574;9.976;2024-03-23T02:48:43;6.10;99.90
14749;DHT22;7466;53.574;9.976;2024-03-23T02:51:09;6.10;99.90
14749;DHT22;7466;53.574;9.976;2024-03-23T02:53:36;6.10;99.90
14749;DHT22;7466;53.574;9.976;2024-03-23T02:56:02;6.00;99.90
14749;DHT22;7466;53.574;9.976;2024-03-23T02:58:30;6.00;99.90
14749;DHT22;7466;53.574;9.976;2024-03-23T03:00:56;6.00;99.90
14749;DHT22;7466;53.574;9.976;2024-03-23T03:03:22;6.00;99.90
14749;DHT22;7466;53.574;9.976;2024-03-23T03:05:49;6.00;99.90
14749;DHT22;7466;53.574;9.976;2024-03-23T03:08:21;6.00;99.90
14749;DHT22;7466;53.574;9.976;2024-03-23T03:10:46;6.00;99.90
14749;DHT22;7466;53.574;9.976;2024-03-23T03:13:13;6.00;99.90
14749;DHT22;7466;53.574;9.976;2024-03-23T03:15:41;6.00;99.90
14749;DHT22;7466;53.574;9.976;2024-03-23T03:18:08;5.90;99.90
14749;DHT22;7466;53.574;9.976;2024-03-23T03:20:34;5.90;99.90
14749;DHT22;7466;53.574;9.976;2024-03-23T03:23:01;5.90;99.90
14749;DHT22;7466;53.574;9.976;2024-03-23T03:25:27;5.90;99.90
14749;DHT22;7466;53.574;9.976;2024-03-23T03:27:53;5.90;99.90
14749;DHT22;7466;53.574;9.976;2024-03-23T03:30:19;5.90;99.90
14749;DHT22;7466;53.574;9.976;2024-03-23T03:32:47;5.90;99.90
14749;DHT22;7466;53.574;9.976;2024-03-23T03:35:13;5.90;99.90
14749;DHT22;7466;53.574;9.976;2024-03-23T03:37:40;5.90;99.90
14749;DHT22;7466;53.574;9.976;2024-03-23T03:40:06;5.90;99.90
14749;DHT22;7466;53.574;9.976;2024-03-23T03:42:34;5.90;99.90
14749;DHT22;7466;53.574;9.976;2024-03-23T03:45:00;5.90;99.90
14749;DHT22;7466;53.574;9.976;2024-03-23T03:47:26;5.90;99.90
14749;DHT22;7466;53.574;9.976;2024-03-23T03:49:54;5.80;99.90
14749;DHT22;7466;53.574;9.976;2024-03-23T03:52:20;5.80;99.90
14749;DHT22;7466;53.574;9.976;2024-03-23T03:54:46;5.80;99.90
14749;DHT22;7466;53.574;9.976;2024-03-23T03:57:13;5.80;99.90
14749;DHT22;7466;53.574;9.976;2024-03-23T03:59:39;5.80;99.90
14749;DHT22;7466;53.574;9.976;2024-03-23T04:02:06;5.80;99.90
14749;DHT22;7466;53.574;9.976;2024-03-23T04:04:31;5.80;99.90
14749;DHT22;7466;53.574;9.976;2024-03-23T04:07:00;5.80;99.90
14749;DHT22;7466;53.574;9.976;2024-03-23T04:09:26;5.80;99.90
14749;DHT22;7466;53.574;9.976;2024-03-23T04:11:53;5.80;99.90
14749;DHT22;7466;53.574;9.976;2024-03-23T04:14:19;5.80;99.90
14749;DHT22;7466;53.574;9.976;2024-03-23T04:16:45;5.80;99.90
14749;DHT22;7466;53.574;9.976;2024-03-23T04:19:11;5.80;99.90
14749;DHT22;7466;53.574;9.976;2024-03-23T04:21:38;5.80;99.90
14749;DHT22;7466;53.574;9.976;2024-03-23T04:24:06;5.70;99.90
14749;DHT22;7466;53.574;9.976;2024-03-23T04:26:40;5.80;99.90
14749;DHT22;7466;53.574;9.976;2024-03-23T04:29:06;5.70;99.90
14749;DHT22;7466;53.574;9.976;2024-03-23T04:31:33;5.70;99.90
14749;DHT22;7466;53.574;9.976;2024-03-23T04:34:00;5.70;99.90
14749;DHT22;7466;53.574;9.976;2024-03-23T04:36:27;5.70;99.90
14749;DHT22;7466;53.574;9.976;2024-03-23T04:38:52;5.70;99.90
14749;DHT22;7466;53.574;9.976;2024-03-23T04:41:20;5.70;99.90
14749;DHT22;7466;53.574;9.976;2024-03-23T04:43:47;5.70;99.90
14749;DHT22;7466;53.574;9.976;2024-03-23T04:46:14;5.70;99.90
14749;DHT22;7466;53.574;9.976;2024-03-23T04:48:41;5.70;99.90
14749;DHT22;7466;53.574;9.976;2024-03-23T04:51:09;5.70;99.90
14749;DHT22;7466;53.574;9.976;2024-03-23T04:53:37;5.70;99.90
14749;DHT22;7466;53.574;9.976;2024-03-23T04:56:04;5.60;99.90
14749;DHT22;7466;53.574;9.976;2024-03-23T04:58:32;5.60;99.90
14749;DHT22;7466;53.574;9.976;2024-03-23T05:00:58;5.60;99.90
14749;DHT22;7466;53.574;9.976;2024-03-23T05:03:25;5.60;99.90
14749;DHT22;7466;53.574;9.976;2024-03-23T05:05:51;5.60;99.90
14749;DHT22;7466;53.574;9.976;2024-03-23T05:08:17;5.60;99.90
14749;DHT22;7466;53.574;9.976;2024-03-23T05:10:44;5.70;99.90
14749;DHT22;7466;53.574;9.976;2024-03-23T05:13:10;5.60;99.90
14749;DHT22;7466;53.574;9.976;2024-03-23T05:15:38;5.60;99.90
14749;DHT22;7466;53.574;9.976;2024-03-23T05:18:05;5.60;99.90
14749;DHT22;7466;53.574;9.976;2024-03-23T05:20:32;5.60;99.90
14749;DHT22;7466;53.574;9.976;2024-03-23T05:22:58;5.60;99.90
14749;DHT22;7466;53.574;9.976;2024-03-23T05:25:24;5.60;99.90
14749;DHT22;7466;53.574;9.976;2024-03-23T05:27:50;5.60;99.90
14749;DHT22;7466;53.574;9.976;2024-03-23T05:30:17;5.60;99.90
14749;DHT22;7466;53.574;9.976;2024-03-23T05:32:44;5.60;99.90
14749;DHT22;7466;53.574;9.976;2024-03-23T05:35:11;5.60;99.90
14749;DHT22;7466;53.574;9.976;2024-03-23T05:37:37;5.60;99.90
14749;DHT22;7466;53.574;9.976;2024-03-23T05:40:04;5.60;99.90
14749;DHT22;7466;53.574;9.976;2024-03-23T05:42:30;5.60;99.90
14749;DHT22;7466;53.574;9.976;2024-03-23T05:44:57;5.60;99.90
14749;DHT22;7466;53.574;9.976;2024-03-23T05:47:23;5.70;99.90
14749;DHT22;7466;53.574;9.976;2024-03-23T05:49:51;5.60;99.90
14749;DHT22;7466;53.574;9.976;2024-03-23T05:52:17;5.70;99.90
14749;DHT22;7466;53.574;9.976;2024-03-23T05:54:46;5.60;99.90
14749;DHT22;7466;53.574;9.976;2024-03-23T05:57:12;5.70;99.90
14749;DHT22;7466;53.574;9.976;2024-03-23T05:59:39;5.70;99.90
14749;DHT22;7466;53.574;9.976;2024-03-23T06:02:05;5.70;99.90
14749;DHT22;7466;53.574;9.976;2024-03-23T06:04:32;5.70;99.90
14749;DHT22;7466;53.574;9.976;2024-03-23T06:07:00;5.70;99.90
14749;DHT22;7466;53.574;9.976;2024-03-23T06:09:26;5.70;99.90
14749;DHT22;7466;53.574;9.976;2024-03-23T06:11:52;5.70;99.90
14749;DHT22;7466;53.574;9.976;2024-03-23T06:14:19;5.70;99.90
14749;DHT22;7466;53.574;9.976;2024-03-23T06:16:44;5.70;99.90
14749;DHT22;7466;53.574;9.976;2024-03-23T06:19:11;5.80;99.90
14749;DHT22;7466;53.574;9.976;2024-03-23T06:21:37;5.80;99.90
14749;DHT22;7466;53.574;9.976;2024-03-23T06:24:05;5.80;99.90
14749;DHT22;7466;53.574;9.976;2024-03-23T06:26:31;5.90;99.90
14749;DHT22;7466;53.574;9.976;2024-03-23T06:28:58;5.90;99.90
14749;DHT22;7466;53.574;9.976;2024-03-23T06:31:24;5.90;99.90
14749;DHT22;7466;53.574;9.976;2024-03-23T06:33:50;5.90;99.90
14749;DHT22;7466;53.574;9.976;2024-03-23T06:36:16;6.00;99.90
14749;DHT22;7466;53.574;9.976;2024-03-23T06:38:45;6.00;99.90
14749;DHT22;7466;53.574;9.976;2024-03-23T06:41:12;6.10;99.90
14749;DHT22;7466;53.574;9.976;2024-03-23T06:43:39;6.10;99.90
14749;DHT22;7466;53.574;9.976;2024-03-23T06:46:05;6.10;99.90
14749;DHT22;7466;53.574;9.976;2024-03-23T06:48:32;6.10;99.90
14749;DHT22;7466;53.574;9.976;2024-03-23T06:50:58;6.00;99.90
14749;DHT22;7466;53.574;9.976;2024-03-23T06:53:25;6.10;99.90
14749;DHT22;7466;53.574;9.976;2024-03-23T06:55:51;6.10;99.90
14749;DHT22;7466;53.574;9.976;2024-03-23T06:58:20;6.10;99.90
14749;DHT22;7466;53.574;9.976;2024-03-23T07:00:46;6.10;99.90
14749;DHT22;7466;53.574;9.976;2024-03-23T07:03:13;6.20;99.90
14749;DHT22;7466;53.574;9.976;2024-03-23T07:05:39;6.10;99.90
14749;DHT22;7466;53.574;9.976;2024-03-23T07:08:06;6.10;99.90
14749;DHT22;7466;53.574;9.976;2024-03-23T07:10:31;6.10;99.90
14749;DHT22;7466;53.574;9.976;2024-03-23T07:12:58;6.10;99.90
14749;DHT22;7466;53.574;9.976;2024-03-23T07:15:25;6.10;99.90
14749;DHT22;7466;53.574;9.976;2024-03-23T07:17:52;6.10;99.90
14749;DHT22;7466;53.574;9.976;2024-03-23T07:20:18;6.30;99.90
14749;DHT22;7466;53.574;9.976;2024-03-23T07:22:45;6.30;99.90
14749;DHT22;7466;53.574;9.976;2024-03-23T07:25:11;6.30;99.90
14749;DHT22;7466;53.574;9.976;2024-03-23T07:27:38;6.40;99.90
14749;DHT22;7466;53.574;9.976;2024-03-23T07:30:04;6.50;99.90
14749;DHT22;7466;53.574;9.976;2024-03-23T07:32:33;6.50;99.90
14749;DHT22;7466;53.574;9.976;2024-03-23T07:34:58;6.50;99.90
14749;DHT22;7466;53.574;9.976;2024-03-23T07:37:25;6.60;99.90
14749;DHT22;7466;53.574;9.976;2024-03-23T07:39:51;6.70;99.90
14749;DHT22;7466;53.574;9.976;2024-03-23T07:42:18;6.70;99.90
14749;DHT22;7466;53.574;9.976;2024-03-23T07:44:43;6.80;99.90
14749;DHT22;7466;53.574;9.976;2024-03-23T07:47:12;6.80;99.90
14749;DHT22;7466;53.574;9.976;2024-03-23T07:49:39;6.70;99.90
14749;DHT22;7466;53.574;9.976;2024-03-23T07:52:06;6.60;99.90
14749;DHT22;7466;53.574;9.976;2024-03-23T07:54:31;6.70;99.90
14749;DHT22;7466;53.574;9.976;2024-03-23T07:56:58;6.90;99.90
14749;DHT22;7466;53.574;9.976;2024-03-23T07:59:24;7.00;99.90
14749;DHT22;7466;53.574;9.976;2024-03-23T08:01:50;7.10;99.90
14749;DHT22;7466;53.574;9.976;2024-03-23T08:04:16;7.10;99.90
14749;DHT22;7466;53.574;9.976;2024-03-23T08:06:44;7.30;99.90
14749;DHT22;7466;53.574;9.976;2024-03-23T08:09:10;7.40;99.90
14749;DHT22;7466;53.574;9.976;2024-03-23T08:11:37;7.50;99.90
14749;DHT22;7466;53.574;9.976;2024-03-23T08:14:04;7.60;99.90
14749;DHT22;7466;53.574;9.976;2024-03-23T08:16:31;7.60;99.90
14749;DHT22;7466;53.574;9.976;2024-03-23T08:18:57;7.70;99.90
14749;DHT22;7466;53.574;9.976;2024-03-23T08:21:24;7.80;99.90
14749;DHT22;7466;53.574;9.976;2024-03-23T08:23:52;7.90;99.90
14749;DHT22;7466;53.574;9.976;2024-03-23T08:26:19;7.90;99.90
14749;DHT22;7466;53.574;9.976;2024-03-23T08:28:45;8.20;99.90
14749;DHT22;7466;53.574;9.976;2024-03-23T08:31:12;8.40;99.90
14749;DHT22;7466;53.574;9.976;2024-03-23T08:33:38;8.40;99.90
14749;DHT22;7466;53.574;9.976;2024-03-23T08:36:07;8.50;99.90
14749;DHT22;7466;53.574;9.976;2024-03-23T08:38:33;8.60;99.90
14749;DHT22;7466;53.574;9.976;2024-03-23T08:41:03;8.70;99.90
14749;DHT22;7466;53.574;9.976;2024-03-23T08:43:30;8.80;99.90
14749;DHT22;7466;53.574;9.976;2024-03-23T08:46:03;8.90;99.90
14749;DHT22;7466;53.574;9.976;2024-03-23T08:48:29;8.70;46.40
14749;DHT22;7466;53.574;9.976;2024-03-23T08:51:00;8.50;1.00
14749;DHT22;7466;53.574;9.976;2024-03-23T08:53:27;8.60;1.00
14749;DHT22;7466;53.574;9.976;2024-03-23T08:55:54;8.80;1.00
14749;DHT22;7466;53.574;9.976;2024-03-23T08:58:23;8.90;1.00
14749;DHT22;7466;53.574;9.976;2024-03-23T09:00:49;9.20;1.00
14749;DHT22;7466;53.574;9.976;2024-03-23T09:03:15;9.90;1.00
14749;DHT22;7466;53.574;9.976;2024-03-23T09:05:42;10.20;1.00
14749;DHT22;7466;53.574;9.976;2024-03-23T09:08:08;10.40;1.00
14749;DHT22;7466;53.574;9.976;2024-03-23T09:10:38;10.60;1.00
14749;DHT22;7466;53.574;9.976;2024-03-23T09:13:04;10.60;1.00
14749;DHT22;7466;53.574;9.976;2024-03-23T09:15:33;11.20;1.00
14749;DHT22;7466;53.574;9.976;2024-03-23T09:17:59;10.90;1.00
14749;DHT22;7466;53.574;9.976;2024-03-23T09:20:26;11.40;1.00
14749;DHT22;7466;53.574;9.976;2024-03-23T09:22:51;11.40;1.00
14749;DHT22;7466;53.574;9.976;2024-03-23T09:25:18;10.50;1.00
14749;DHT22;7466;53.574;9.976;2024-03-23T09:27:45;10.20;1.00
14749;DHT22;7466;53.574;9.976;2024-03-23T09:30:13;10.20;1.00
14749;DHT22;7466;53.574;9.976;2024-03-23T09:32:42;9.50;1.00
14749;DHT22;7466;53.574;9.976;2024-03-23T09:35:08;9.30;1.00
14749;DHT22;7466;53.574;9.976;2024-03-23T09:37:34;9.60;1.00
14749;DHT22;7466;53.574;9.976;2024-03-23T09:40:01;10.20;1.00
14749;DHT22;7466;53.574;9.976;2024-03-23T09:42:27;10.20;1.00
14749;DHT22;7466;53.574;9.976;2024-03-23T09:44:57;10.30;1.00
14749;DHT22;7466;53.574;9.976;2024-03-23T09:47:24;10.00;1.00
14749;DHT22;7466;53.574;9.976;2024-03-23T09:49:52;9.40;1.00
14749;DHT22;7466;53.574;9.976;2024-03-23T09:52:19;9.60;1.00
14749;DHT22;7466;53.574;9.976;2024-03-23T09:54:45;9.90;1.00
14749;DHT22;7466;53.574;9.976;2024-03-23T09:57:11;9.80;1.00
14749;DHT22;7466;53.574;9.976;2024-03-23T09:59:38;10.00;1.00
14749;DHT22;7466;53.574;9.976;2024-03-23T10:02:05;10.10;1.00
14749;DHT22;7466;53.574;9.976;2024-03-23T10:04:38;9.50;1.00
14749;DHT22;7466;53.574;9.976;2024-03-23T10:07:12;9.60;1.00
14749;DHT22;7466;53.574;9.976;2024-03-23T10:09:39;9.40;1.00
14749;DHT22;7466;53.574;9.976;2024-03-23T10:12:09;9.70;1.00
14749;DHT22;7466;53.574;9.976;2024-03-23T10:14:37;9.70;1.00
14749;DHT22;7466;53.574;9.976;2024-03-23T10:17:14;10.60;1.00
14749;DHT22;7466;53.574;9.976;2024-03-23T10:19:43;11.50;1.00
14749;DHT22;7466;53.574;9.976;2024-03-23T10:22:09;12.50;1.00
14749;DHT22;7466;53.574;9.976;2024-03-23T10:24:38;12.40;11.90
14749;DHT22;7466;53.574;9.976;2024-03-23T10:27:03;12.00;1.00
14749;DHT22;7466;53.574;9.976;2024-03-23T10:29:30;11.70;1.00
14749;DHT22;7466;53.574;9.976;2024-03-23T10:32:07;11.10;1.00
14749;DHT22;7466;53.574;9.976;2024-03-23T10:34:35;10.60;1.00
14749;DHT22;7466;53.574;9.976;2024-03-23T10:37:02;10.30;1.00
14749;DHT22;7466;53.574;9.976;2024-03-23T10:39:31;9.90;1.00
14749;DHT22;7466;53.574;9.976;2024-03-23T10:42:01;9.60;1.00
14749;DHT22;7466;53.574;9.976;2024-03-23T10:44:29;9.40;1.00
14749;DHT22;7466;53.574;9.976;2024-03-23T10:46:57;9.20;1.00
14749;DHT22;7466;53.574;9.976;2024-03-23T10:49:26;9.20;1.00
14749;DHT22;7466;53.574;9.976;2024-03-23T10:51:55;9.50;1.00
14749;DHT22;7466;53.574;9.976;2024-03-23T10:54:21;9.40;1.00
14749;DHT22;7466;53.574;9.976;2024-03-23T10:56:52;9.20;1.00
14749;DHT22;7466;53.574;9.976;2024-03-23T10:59:21;8.80;1.00
14749;DHT22;7466;53.574;9.976;2024-03-23T11:01:55;8.70;1.00
14749;DHT22;7466;53.574;9.976;2024-03-23T11:04:30;8.90;1.00
14749;DHT22;7466;53.574;9.976;2024-03-23T11:06:57;8.80;1.00
14749;DHT22;7466;53.574;9.976;2024-03-23T11:09:38;9.60;1.00
14749;DHT22;7466;53.574;9.976;2024-03-23T11:12:24;10.30;1.00
14749;DHT22;7466;53.574;9.976;2024-03-23T11:14:53;11.10;1.00
14749;DHT22;7466;53.574;9.976;2024-03-23T11:17:21;11.40;15.30
14749;DHT22;7466;53.574;9.976;2024-03-23T11:19:53;11.70;12.00
14749;DHT22;7466;53.574;9.976;2024-03-23T11:22:41;12.50;16.00
14749;DHT22;7466;53.574;9.976;2024-03-23T11:25:14;12.90;14.60
14749;DHT22;7466;53.574;9.976;2024-03-23T11:27:42;12.30;15.90
14749;DHT22;7466;53.574;9.976;2024-03-23T11:30:14;11.50;22.60
14749;DHT22;7466;53.574;9.976;2024-03-23T11:32:42;11.70;1.00
14749;DHT22;7466;53.574;9.976;2024-03-23T11:35:08;11.50;1.00
14749;DHT22;7466;53.574;9.976;2024-03-23T11:37:36;11.60;1.00
14749;DHT22;7466;53.574;9.976;2024-03-23T11:40:17;12.20;1.00
14749;DHT22;7466;53.574;9.976;2024-03-23T11:42:43;12.70;1.00
14749;DHT22;7466;53.574;9.976;2024-03-23T11:45:10;12.30;1.00
14749;DHT22;7466;53.574;9.976;2024-03-23T11:47:38;11.70;1.00
14749;DHT22;7466;53.574;9.976;2024-03-23T11:50:05;11.60;1.00
14749;DHT22;7466;53.574;9.976;2024-03-23T11:52:31;12.40;1.00
14749;DHT22;7466;53.574;9.976;2024-03-23T11:55:03;12.40;1.00
14749;DHT22;7466;53.574;9.976;2024-03-23T11:57:31;12.40;1.00
14749;DHT22;7466;53.574;9.976;2024-03-23T11:59:56;12.40;1.00
14749;DHT22;7466;53.574;9.976;2024-03-23T12:02:23;11.90;1.00
14749;DHT22;7466;53.574;9.976;2024-03-23T12:04:50;11.50;1.00
14749;DHT22;7466;53.574;9.976;2024-03-23T12:07:19;10.50;1.00
14749;DHT22;7466;53.574;9.976;2024-03-23T12:09:46;9.70;1.00
14749;DHT22;7466;53.574;9.976;2024-03-23T12:12:14;9.30;1.00
14749;DHT22;7466;53.574;9.976;2024-03-23T12:14:41;8.90;1.00
14749;DHT22;7466;53.574;9.976;2024-03-23T12:17:09;8.90;1.00
14749;DHT22;7466;53.574;9.976;2024-03-23T12:19:36;9.00;1.00
14749;DHT22;7466;53.574;9.976;2024-03-23T12:22:04;9.10;1.00
14749;DHT22;7466;53.574;9.976;2024-03-23T12:24:31;9.10;1.00
14749;DHT22;7466;53.574;9.976;2024-03-23T12:27:00;8.90;1.00
14749;DHT22;7466;53.574;9.976;2024-03-23T12:29:28;9.30;1.00
14749;DHT22;7466;53.574;9.976;2024-03-23T12:31:54;9.80;1.00
14749;DHT22;7466;53.574;9.976;2024-03-23T12:34:21;10.90;1.00
14749;DHT22;7466;53.574;9.976;2024-03-23T12:36:48;11.30;1.00
14749;DHT22;7466;53.574;9.976;2024-03-23T12:39:15;10.80;1.00
14749;DHT22;7466;53.574;9.976;2024-03-23T12:41:41;9.60;1.00
14749;DHT22;7466;53.574;9.976;2024-03-23T12:44:08;8.80;1.00
14749;DHT22;7466;53.574;9.976;2024-03-23T12:46:37;7.80;1.00
14749;DHT22;7466;53.574;9.976;2024-03-23T12:49:03;7.40;1.00
14749;DHT22;7466;53.574;9.976;2024-03-23T12:51:30;7.20;1.00
14749;DHT22;7466;53.574;9.976;2024-03-23T12:53:56;6.50;57.80
14749;DHT22;7466;53.574;9.976;2024-03-23T12:56:24;6.30;40.80
14749;DHT22;7466;53.574;9.976;2024-03-23T12:58:50;6.00;99.90
14749;DHT22;7466;53.574;9.976;2024-03-23T13:01:19;6.00;99.90
14749;DHT22;7466;53.574;9.976;2024-03-23T13:03:46;6.10;99.90
14749;DHT22;7466;53.574;9.976;2024-03-23T13:06:13;6.20;99.90
14749;DHT22;7466;53.574;9.976;2024-03-23T13:08:39;6.40;99.90
14749;DHT22;7466;53.574;9.976;2024-03-23T13:11:06;6.50;37.70
14749;DHT22;7466;53.574;9.976;2024-03-23T13:13:35;6.70;61.90
14749;DHT22;7466;53.574;9.976;2024-03-23T13:16:02;6.70;29.40
14749;DHT22;7466;53.574;9.976;2024-03-23T13:18:28;7.00;53.20
14749;DHT22;7466;53.574;9.976;2024-03-23T13:20:55;6.90;24.70
14749;DHT22;7466;53.574;9.976;2024-03-23T13:23:21;6.90;64.40
14749;DHT22;7466;53.574;9.976;2024-03-23T13:25:51;7.00;54.40
14749;DHT22;7466;53.574;9.976;2024-03-23T13:28:18;6.90;22.80
14749;DHT22;7466;53.574;9.976;2024-03-23T13:30:51;6.90;46.60
14749;DHT22;7466;53.574;9.976;2024-03-23T13:33:17;7.00;50.30
14749;DHT22;7466;53.574;9.976;2024-03-23T13:35:50;7.00;43.00
14749;DHT22;7466;53.574;9.976;2024-03-23T13:38:16;7.30;30.60
14749;DHT22;7466;53.574;9.976;2024-03-23T13:40:50;8.00;1.00
14749;DHT22;7466;53.574;9.976;2024-03-23T13:43:16;8.90;1.00
14749;DHT22;7466;53.574;9.976;2024-03-23T13:45:43;8.80;1.00
14749;DHT22;7466;53.574;9.976;2024-03-23T13:48:10;9.40;1.00
14749;DHT22;7466;53.574;9.976;2024-03-23T13:50:37;9.40;1.00
14749;DHT22;7466;53.574;9.976;2024-03-23T13:53:03;9.70;1.00
14749;DHT22;7466;53.574;9.976;2024-03-23T13:55:30;9.50;1.00
14749;DHT22;7466;53.574;9.976;2024-03-23T13:57:56;8.90;1.00
14749;DHT22;7466;53.574;9.976;2024-03-23T14:00:23;8.70;1.00
14749;DHT22;7466;53.574;9.976;2024-03-23T14:02:49;8.70;1.00
14749;DHT22;7466;53.574;9.976;2024-03-23T14:05:17;8.90;1.00
14749;DHT22;7466;53.574;9.976;2024-03-23T14:07:43;8.80;1.00
14749;DHT22;7466;53.574;9.976;2024-03-23T14:10:10;8.40;1.00
14749;DHT22;7466;53.574;9.976;2024-03-23T14:12:36;8.30;1.00
14749;DHT22;7466;53.574;9.976;2024-03-23T14:15:05;8.40;1.00
14749;DHT22;7466;53.574;9.976;2024-03-23T14:17:31;8.50;1.00
14749;DHT22;7466;53.574;9.976;2024-03-23T14:19:58;8.40;1.00
14749;DHT22;7466;53.574;9.976;2024-03-23T14:22:27;8.70;1.00
14749;DHT22;7466;53.574;9.976;2024-03-23T14:24:54;8.50;1.00
14749;DHT22;7466;53.574;9.976;2024-03-23T14:27:20;8.30;1.00
14749;DHT22;7466;53.574;9.976;2024-03-23T14:29:47;8.30;1.00
14749;DHT22;7466;53.574;9.976;2024-03-23T14:32:13;8.40;1.00
14749;DHT22;7466;53.574;9.976;2024-03-23T14:34:40;8.50;1.00
14749;DHT22;7466;53.574;9.976;2024-03-23T14:37:06;8.70;1.00
14749;DHT22;7466;53.574;9.976;2024-03-23T14:39:34;8.80;1.00
14749;DHT22;7466;53.574;9.976;2024-03-23T14:42:00;8.80;1.00
14749;DHT22;7466;53.574;9.976;2024-03-23T14:44:27;9.00;1.00
14749;DHT22;7466;53.574;9.976;2024-03-23T14:46:53;9.00;1.00
14749;DHT22;7466;53.574;9.976;2024-03-23T14:49:20;8.90;1.00
14749;DHT22;7466;53.574;9.976;2024-03-23T14:51:46;8.70;1.00
14749;DHT22;7466;53.574;9.976;2024-03-23T14:54:13;8.50;1.00
14749;DHT22;7466;53.574;9.976;2024-03-23T14:56:40;8.30;1.00
14749;DHT22;7466;53.574;9.976;2024-03-23T14:59:07;7.70;1.00
14749;DHT22;7466;53.574;9.976;2024-03-23T15:01:33;7.10;64.50
14749;DHT22;7466;53.574;9.976;2024-03-23T15:04:00;6.90;60.80
14749;DHT22;7466;53.574;9.976;2024-03-23T15:06:26;6.90;62.50
14749;DHT22;7466;53.574;9.976;2024-03-23T15:08:53;6.80;88.80
14749;DHT22;7466;53.574;9.976;2024-03-23T15:11:20;6.90;99.90
14749;DHT22;7466;53.574;9.976;2024-03-23T15:13:49;6.90;95.90
14749;DHT22;7466;53.574;9.976;2024-03-23T15:16:17;6.90;99.90
14749;DHT22;7466;53.574;9.976;2024-03-23T15:18:45;6.60;99.90
14749;DHT22;7466;53.574;9.976;2024-03-23T15:21:11;6.50;99.90
14749;DHT22;7466;53.574;9.976;2024-03-23T15:23:40;6.70;99.90
14749;DHT22;7466;53.574;9.976;2024-03-23T15:26:09;6.90;99.90
14749;DHT22;7466;53.574;9.976;2024-03-23T15:28:36;6.90;99.90
14749;DHT22;7466;53.574;9.976;2024-03-23T15:31:09;7.00;99.90
14749;DHT22;7466;53.574;9.976;2024-03-23T15:33:36;6.80;68.80
14749;DHT22;7466;53.574;9.976;2024-03-23T15:36:02;6.80;98.70
14749;DHT22;7466;53.574;9.976;2024-03-23T15:38:31;6.90;99.90
14749;DHT22;7466;53.574;9.976;2024-03-23T15:40:56;6.90;99.90
14749;DHT22;7466;53.574;9.976;2024-03-23T15:43:23;6.80;95.40
14749;DHT22;7466;53.574;9.976;2024-03-23T15:45:55;6.80;83.80
14749;DHT22;7466;53.574;9.976;2024-03-23T15:48:23;6.90;99.90
14749;DHT22;7466;53.574;9.976;2024-03-23T15:50:52;7.00;99.90
14749;DHT22;7466;53.574;9.976;2024-03-23T15:53:19;7.00;92.60
14749;DHT22;7466;53.574;9.976;2024-03-23T15:55:45;7.00;79.90
14749;DHT22;7466;53.574;9.976;2024-03-23T15:58:12;7.10;72.00
14749;DHT22;7466;53.574;9.976;2024-03-23T16:00:38;7.10;90.20
14749;DHT22;7466;53.574;9.976;2024-03-23T16:03:05;7.10;99.90
14749;DHT22;7466;53.574;9.976;2024-03-23T16:05:33;7.10;99.90
14749;DHT22;7466;53.574;9.976;2024-03-23T16:07:59;7.10;99.90
14749;DHT22;7466;53.574;9.976;2024-03-23T16:10:25;7.10;99.00
14749;DHT22;7466;53.574;9.976;2024-03-23T16:12:52;7.10;82.30
14749;DHT22;7466;53.574;9.976;2024-03-23T16:15:18;7.10;37.30
14749;DHT22;7466;53.574;9.976;2024-03-23T16:17:44;7.00;20.00
14749;DHT22;7466;53.574;9.976;2024-03-23T16:20:11;7.00;14.70
14749;DHT22;7466;53.574;9.976;2024-03-23T16:22:39;6.80;16.40
14749;DHT22;7466;53.574;9.976;2024-03-23T16:25:06;6.70;67.70
14749;DHT22;7466;53.574;9.976;2024-03-23T16:27:33;6.60;88.00
14749;DHT22;7466;53.574;9.976;2024-03-23T16:29:59;6.70;99.90
14749;DHT22;7466;53.574;9.976;2024-03-23T16:32:25;6.80;99.90
14749;DHT22;7466;53.574;9.976;2024-03-23T16:34:53;6.80;61.60
14749;DHT22;7466;53.574;9.976;2024-03-23T16:37:19;6.80;1.00
14749;DHT22;7466;53.574;9.976;2024-03-23T16:39:46;6.80;1.60
14749;DHT22;7466;53.574;9.976;2024-03-23T16:42:13;6.90;1.00
14749;DHT22;7466;53.574;9.976;2024-03-23T16:44:39;6.90;1.00
14749;DHT22;7466;53.574;9.976;2024-03-23T16:47:07;7.00;11.80
14749;DHT22;7466;53.574;9.976;2024-03-23T16:49:33;6.90;16.30
14749;DHT22;7466;53.574;9.976;2024-03-23T16:52:00;6.90;21.80
14749;DHT22;7466;53.574;9.976;2024-03-23T16:54:26;6.80;27.70
14749;DHT22;7466;53.574;9.976;2024-03-23T16:56:55;6.70;38.40